LICB/CIY METAR and TAF weather

Enter ICAO airport designator
Station Type Date Time Source
LICB METAR 2020/01/24 02:50 UTC NOAA

LICB 240250Z AUTO 10004KT 7000 OVC032/// 11/07 Q1028


Station Type Date Time Source
LICB Decoded METAR 2020/01/24 02:50 UTC NOAA

Comiso As Usaf , Italy (LICB) 36-56N 014-36E
Jan 23, 2020 - 09:50 PM EST / 2020.01.24 0250 UTC
Wind: from the E (100 degrees) at 5 MPH (4 KT):0
Visibility: 4 mile(s):0
Sky conditions: overcast
Temperature: 51 F (11 C)
Dew Point: 44 F (7 C)
Relative Humidity: 76%
Pressure (altimeter): 30.36 in. Hg (1028 hPa)
ob: LICB 240250Z AUTO 10004KT 7000 OVC032/// 11/07 Q1028
cycle: 3

Station Type Date Time Source
LICB TAF UTC NOAA

Error!

Example: see airport list